Terminal Aerodrome Forecast
Issued by NWS

Home | Current Version | Previous Version | Text Only | Print | Product List | Glossary On
Versions: 1 2 3 4 5 6 7 8 9 10 11 12 13 14 15
000
FTUS46 KMTR 162336
TAFOAK
TAF
KOAK 162336Z 1700/1806 29008KT P6SM FEW020 BKN200
     FM170100 31005KT 6SM HZ FEW050 SCT250
     FM170900 VRB04KT P6SM FEW120 BKN250
     FM172000 28008KT P6SM FEW090 BKN250
     FM180100 31005KT P6SM SCT250=

USA.gov is the U.S. government's official web portal to all federal, state and local government web resources and services.